createdAt,value
2022-10-08T00:00:11.503Z,12.17
2022-10-08T00:03:14.498Z,12.09
2022-10-08T00:06:18.936Z,12.04
2022-10-08T00:09:21.829Z,11.92
2022-10-08T00:12:25.847Z,12.08
2022-10-08T00:15:29.043Z,12.05
2022-10-08T00:18:31.983Z,12.09
2022-10-08T00:21:37.392Z,11.95
2022-10-08T00:24:40.385Z,11.87
2022-10-08T00:27:43.071Z,11.77
2022-10-08T00:30:47.055Z,11.78
2022-10-08T00:33:55.151Z,11.71
2022-10-08T00:36:58.020Z,11.80
2022-10-08T00:40:00.838Z,11.92
2022-10-08T00:43:03.778Z,11.80
2022-10-08T00:46:15.897Z,11.73
2022-10-08T00:49:23.184Z,11.59
2022-10-08T00:52:28.320Z,11.44
2022-10-08T00:55:32.562Z,11.36
2022-10-08T00:58:36.819Z,11.09
2022-10-08T01:01:44.149Z,10.95
2022-10-08T01:04:48.195Z,11.02
2022-10-08T01:08:03.080Z,10.94
2022-10-08T01:11:47.772Z,10.99
2022-10-08T01:15:01.991Z,11.05
2022-10-08T01:18:33.702Z,11.05
2022-10-08T01:21:45.266Z,10.93
2022-10-08T01:25:19.607Z,10.99
2022-10-08T01:28:37.032Z,10.92
2022-10-08T01:31:50.760Z,10.93
2022-10-08T01:35:01.238Z,10.94
2022-10-08T01:38:07.290Z,10.96
2022-10-08T01:41:14.104Z,10.98
2022-10-08T01:44:48.267Z,11.03
2022-10-08T01:47:52.171Z,11.02
2022-10-08T01:51:13.555Z,10.99
2022-10-08T01:54:20.943Z,10.93
2022-10-08T01:57:24.469Z,10.90
2022-10-08T02:00:27.790Z,10.88
2022-10-08T02:03:30.820Z,10.77
2022-10-08T02:06:37.609Z,10.86
2022-10-08T02:09:43.776Z,10.80
2022-10-08T02:12:46.602Z,10.73
2022-10-08T02:16:11.460Z,10.70
2022-10-08T02:19:38.794Z,10.69
2022-10-08T02:23:04.431Z,10.64
2022-10-08T02:26:30.101Z,10.63
2022-10-08T02:29:44.296Z,10.67
2022-10-08T02:33:16.154Z,10.91
2022-10-08T02:36:26.203Z,10.91
2022-10-08T02:39:31.265Z,11.06
2022-10-08T02:42:36.767Z,11.26
2022-10-08T02:45:55.647Z,11.24
2022-10-08T02:49:06.250Z,11.28
2022-10-08T02:52:10.766Z,11.24
2022-10-08T02:55:19.539Z,11.08
2022-10-08T02:58:22.588Z,10.77
2022-10-08T03:01:48.998Z,10.74
2022-10-08T03:04:59.524Z,10.39
2022-10-08T03:08:05.999Z,10.48
2022-10-08T03:11:10.919Z,10.44
2022-10-08T03:14:16.518Z,10.50
2022-10-08T03:17:33.646Z,10.46
2022-10-08T03:20:45.697Z,10.54
2022-10-08T03:23:48.331Z,10.52
2022-10-08T03:26:53.240Z,10.42
2022-10-08T03:29:57.521Z,10.35
2022-10-08T03:33:00.483Z,10.27
2022-10-08T03:36:03.088Z,10.28
2022-10-08T03:39:06.103Z,10.21
2022-10-08T03:42:08.964Z,10.18
2022-10-08T03:45:14.860Z,10.21
2022-10-08T03:48:17.559Z,10.15
2022-10-08T03:51:20.931Z,10.27
2022-10-08T03:54:23.558Z,10.39
2022-10-08T03:57:26.499Z,10.39
2022-10-08T04:00:29.023Z,10.45
2022-10-08T04:03:32.911Z,10.34
2022-10-08T04:06:35.462Z,10.33
2022-10-08T04:09:38.358Z,10.37
2022-10-08T04:12:40.960Z,10.36
2022-10-08T04:15:44.936Z,10.17
2022-10-08T04:18:48.614Z,10.04
2022-10-08T04:21:51.592Z,9.97
2022-10-08T04:24:54.089Z,9.68
2022-10-08T04:27:57.099Z,9.65
2022-10-08T04:31:06.282Z,9.58
2022-10-08T04:34:11.854Z,9.64
2022-10-08T04:37:14.457Z,9.86
2022-10-08T04:40:17.371Z,9.84
2022-10-08T04:43:19.918Z,9.83
2022-10-08T04:46:23.083Z,9.88
2022-10-08T04:49:26.102Z,9.91
2022-10-08T04:52:29.042Z,9.96
2022-10-08T04:55:31.999Z,9.90
2022-10-08T04:58:34.979Z,9.82
2022-10-08T05:01:37.696Z,9.95
2022-10-08T05:04:40.615Z,9.84
2022-10-08T05:07:43.545Z,9.75
2022-10-08T05:10:49.874Z,9.70
2022-10-08T05:13:54.471Z,9.46
2022-10-08T05:16:57.357Z,9.27
2022-10-08T05:19:59.935Z,9.28
2022-10-08T05:23:02.953Z,9.22
2022-10-08T05:26:14.467Z,9.28
2022-10-08T05:29:17.474Z,9.27
2022-10-08T05:32:20.054Z,9.29
2022-10-08T05:35:23.160Z,9.20
2022-10-08T05:38:25.773Z,9.22
2022-10-08T05:41:30.908Z,9.18
2022-10-08T05:44:37.539Z,9.13
2022-10-08T05:47:40.855Z,9.13
2022-10-08T05:50:43.412Z,9.11
2022-10-08T05:53:49.950Z,9.09
2022-10-08T05:56:53.824Z,9.17
2022-10-08T05:59:56.775Z,9.23
2022-10-08T06:02:59.447Z,9.38
2022-10-08T06:06:04.624Z,9.44
2022-10-08T06:09:08.735Z,9.67
2022-10-08T06:12:12.880Z,10.06
2022-10-08T06:15:15.641Z,10.14
2022-10-08T06:18:18.674Z,10.48
2022-10-08T06:21:24.352Z,10.71
2022-10-08T06:24:27.362Z,10.74
2022-10-08T06:27:29.938Z,10.81
2022-10-08T06:30:32.822Z,11.00
2022-10-08T06:33:35.774Z,11.37
2022-10-08T06:36:38.876Z,11.48
2022-10-08T06:39:47.544Z,11.96
2022-10-08T06:42:51.887Z,12.16
2022-10-08T06:45:55.533Z,12.92
2022-10-08T06:49:00.603Z,13.41
2022-10-08T06:52:03.197Z,13.35
2022-10-08T06:55:06.416Z,13.40
2022-10-08T06:58:09.054Z,13.94
2022-10-08T07:01:20.689Z,13.95
2022-10-08T07:04:23.415Z,14.04
2022-10-08T07:07:26.288Z,14.08
2022-10-08T07:10:33.120Z,14.04
2022-10-08T07:13:37.789Z,14.07
2022-10-08T07:16:40.541Z,14.11
2022-10-08T07:19:43.617Z,14.22
2022-10-08T07:22:46.488Z,14.38
2022-10-08T07:26:01.004Z,14.44
2022-10-08T07:29:08.855Z,14.65
2022-10-08T07:32:11.992Z,14.82
2022-10-08T07:35:14.703Z,14.94
2022-10-08T07:38:18.696Z,15.07
2022-10-08T07:41:21.364Z,15.18
2022-10-08T07:44:24.287Z,15.27
2022-10-08T07:47:26.900Z,15.40
2022-10-08T07:50:29.831Z,15.48
2022-10-08T07:53:32.417Z,15.72
2022-10-08T07:56:37.111Z,15.85
2022-10-08T07:59:39.724Z,16.04
2022-10-08T08:02:42.703Z,16.14
2022-10-08T08:05:45.625Z,16.40
2022-10-08T08:08:48.297Z,16.69
2022-10-08T08:11:51.349Z,16.87
2022-10-08T08:14:53.907Z,16.97
2022-10-08T08:17:56.860Z,17.34
2022-10-08T08:21:01.229Z,17.87
2022-10-08T08:24:11.753Z,18.70
2022-10-08T08:27:14.524Z,19.27
2022-10-08T08:30:17.591Z,19.90
2022-10-08T08:33:21.251Z,20.03
2022-10-08T08:36:26.797Z,20.33
2022-10-08T08:39:31.171Z,21.30
2022-10-08T08:42:51.456Z,22.45
2022-10-08T08:45:54.339Z,22.90
2022-10-08T08:49:03.572Z,23.44
2022-10-08T08:52:07.567Z,24.16
2022-10-08T08:55:21.494Z,24.46
2022-10-08T08:58:49.425Z,24.91
2022-10-08T09:01:57.483Z,24.93
2022-10-08T09:05:03.863Z,25.05
2022-10-08T09:08:34.217Z,25.43
2022-10-08T09:11:39.659Z,25.36
2022-10-08T09:14:46.263Z,25.48
2022-10-08T09:17:52.283Z,25.99
2022-10-08T09:20:57.565Z,26.46
2022-10-08T09:24:00.868Z,26.45
2022-10-08T09:27:13.891Z,26.22
2022-10-08T09:30:36.645Z,26.85
2022-10-08T09:33:41.115Z,26.91
2022-10-08T09:37:05.135Z,27.15
2022-10-08T09:40:25.825Z,26.67
2022-10-08T09:43:33.121Z,27.11
2022-10-08T09:46:41.986Z,26.95
2022-10-08T09:49:52.815Z,26.93
2022-10-08T09:52:59.087Z,26.82
2022-10-08T09:56:08.990Z,26.96
2022-10-08T09:59:20.326Z,27.39
2022-10-08T10:02:39.521Z,26.62
2022-10-08T10:05:51.344Z,26.83
2022-10-08T10:09:24.908Z,27.06
2022-10-08T10:12:33.737Z,26.83
2022-10-08T10:15:58.494Z,26.75
2022-10-08T10:19:36.747Z,25.69
2022-10-08T10:22:57.835Z,26.20
2022-10-08T10:26:24.618Z,26.07
2022-10-08T10:29:38.637Z,26.78
2022-10-08T10:32:49.544Z,26.67
2022-10-08T10:36:07.279Z,26.84
2022-10-08T10:39:12.940Z,27.01
2022-10-08T10:42:21.829Z,26.26
2022-10-08T10:45:28.024Z,25.55
2022-10-08T10:48:30.795Z,26.03
2022-10-08T10:52:03.684Z,26.75
2022-10-08T10:55:32.033Z,27.10
2022-10-08T10:58:58.605Z,27.05
2022-10-08T11:02:30.179Z,27.18
2022-10-08T11:05:36.805Z,27.70
2022-10-08T11:08:51.288Z,27.62
2022-10-08T11:12:42.296Z,27.09
2022-10-08T11:15:56.281Z,27.01
2022-10-08T11:19:04.669Z,26.61
2022-10-08T11:22:28.928Z,27.13
2022-10-08T11:26:20.542Z,27.00
2022-10-08T11:29:30.283Z,27.16
2022-10-08T11:32:34.577Z,26.43
2022-10-08T11:35:53.876Z,26.86
2022-10-08T11:39:20.213Z,26.89
2022-10-08T11:43:02.198Z,26.85
2022-10-08T11:46:23.243Z,27.71
2022-10-08T11:49:27.873Z,27.95
2022-10-08T11:52:32.087Z,27.26
2022-10-08T11:55:34.851Z,26.82
2022-10-08T11:58:39.416Z,26.66
2022-10-08T12:01:57.413Z,26.91
2022-10-08T12:05:18.345Z,26.18
2022-10-08T12:08:53.200Z,25.36
2022-10-08T12:11:56.471Z,25.67
2022-10-08T12:14:59.058Z,26.10
2022-10-08T12:18:13.957Z,26.20
2022-10-08T12:21:17.632Z,26.40
2022-10-08T12:24:38.952Z,26.05
2022-10-08T12:27:41.627Z,26.29
2022-10-08T12:31:02.335Z,26.23
2022-10-08T12:34:12.531Z,26.58
2022-10-08T12:37:49.885Z,24.76
2022-10-08T12:40:55.958Z,25.50
2022-10-08T12:44:01.900Z,25.83
2022-10-08T12:47:27.637Z,25.28
2022-10-08T12:50:56.094Z,25.42
2022-10-08T12:54:01.166Z,25.27
2022-10-08T12:57:10.313Z,24.94
2022-10-08T13:00:19.052Z,24.39
2022-10-08T13:03:22.254Z,24.29
2022-10-08T13:06:33.194Z,24.40
2022-10-08T13:09:36.980Z,24.19
2022-10-08T13:12:40.633Z,23.57
2022-10-08T13:15:43.637Z,23.43
2022-10-08T13:18:50.022Z,23.33
2022-10-08T13:22:01.735Z,23.73
2022-10-08T13:25:05.000Z,23.72
2022-10-08T13:28:16.825Z,23.45
2022-10-08T13:31:24.271Z,23.41
2022-10-08T13:34:34.149Z,23.76
2022-10-08T13:37:40.997Z,22.70
2022-10-08T13:40:53.002Z,22.70
2022-10-08T13:43:55.585Z,22.31
2022-10-08T13:47:03.577Z,22.18
2022-10-08T13:50:07.044Z,22.24
2022-10-08T13:53:12.380Z,22.20
2022-10-08T13:56:15.118Z,22.03
2022-10-08T13:59:19.025Z,21.95
2022-10-08T14:02:21.936Z,21.81
2022-10-08T14:05:27.401Z,21.73
2022-10-08T14:08:31.563Z,21.81
2022-10-08T14:11:35.162Z,21.72
2022-10-08T14:14:38.373Z,21.61
2022-10-08T14:17:41.374Z,21.47
2022-10-08T14:20:44.220Z,21.32
2022-10-08T14:23:47.087Z,21.24
2022-10-08T14:26:50.142Z,21.18
2022-10-08T14:29:54.069Z,21.10
2022-10-08T14:32:56.957Z,21.01
2022-10-08T14:35:59.818Z,21.01
2022-10-08T14:39:02.692Z,20.84
2022-10-08T14:42:05.770Z,20.78
2022-10-08T14:45:08.635Z,20.75
2022-10-08T14:48:11.578Z,20.73
2022-10-08T14:51:14.354Z,20.68
2022-10-08T14:54:18.382Z,20.54
2022-10-08T14:57:21.021Z,20.49
2022-10-08T15:00:24.019Z,20.42
2022-10-08T15:03:26.899Z,20.29
2022-10-08T15:06:29.890Z,20.21
2022-10-08T15:09:32.491Z,20.12
2022-10-08T15:12:35.400Z,19.98
2022-10-08T15:15:42.796Z,19.82
2022-10-08T15:18:45.720Z,19.76
2022-10-08T15:21:48.326Z,19.64
2022-10-08T15:24:51.304Z,19.56
2022-10-08T15:27:54.574Z,19.50
2022-10-08T15:31:05.944Z,19.37
2022-10-08T15:34:18.033Z,19.18
2022-10-08T15:37:20.935Z,18.94
2022-10-08T15:40:23.794Z,18.81
2022-10-08T15:43:33.407Z,18.72
2022-10-08T15:46:36.684Z,18.56
2022-10-08T15:49:42.036Z,18.50
2022-10-08T15:52:46.426Z,18.40
2022-10-08T15:55:58.691Z,18.32
2022-10-08T15:59:02.469Z,18.14
2022-10-08T16:02:06.071Z,17.98
2022-10-08T16:05:09.442Z,17.76
2022-10-08T16:08:13.545Z,17.70
2022-10-08T16:11:18.846Z,17.59
2022-10-08T16:14:23.939Z,17.42
2022-10-08T16:17:27.086Z,17.22
2022-10-08T16:20:29.671Z,17.12
2022-10-08T16:23:34.474Z,16.92
2022-10-08T16:26:38.287Z,16.78
2022-10-08T16:29:41.217Z,16.68
2022-10-08T16:32:45.651Z,16.56
2022-10-08T16:35:50.035Z,16.49
2022-10-08T16:38:53.453Z,16.43
2022-10-08T16:41:56.429Z,16.36
2022-10-08T16:44:59.001Z,16.32
2022-10-08T16:48:02.055Z,16.29
2022-10-08T16:51:04.823Z,16.21
2022-10-08T16:54:11.473Z,16.12
2022-10-08T16:57:14.128Z,16.07
2022-10-08T17:00:17.057Z,16.27
2022-10-08T17:03:19.719Z,16.13
2022-10-08T17:06:24.187Z,16.19
2022-10-08T17:09:28.035Z,16.06
2022-10-08T17:12:30.924Z,16.07
2022-10-08T17:15:34.559Z,16.01
2022-10-08T17:18:39.763Z,15.78
2022-10-08T17:21:43.901Z,15.51
2022-10-08T17:24:49.517Z,15.52
2022-10-08T17:27:52.205Z,15.51
2022-10-08T17:30:58.101Z,15.66
2022-10-08T17:34:01.568Z,15.59
2022-10-08T17:37:06.679Z,15.52
2022-10-08T17:40:11.321Z,15.50
2022-10-08T17:43:14.414Z,15.42
2022-10-08T17:46:22.537Z,15.34
2022-10-08T17:49:25.973Z,15.12
2022-10-08T17:52:29.901Z,15.05
2022-10-08T17:55:35.839Z,15.16
2022-10-08T17:58:39.119Z,15.15
2022-10-08T18:01:45.053Z,15.00
2022-10-08T18:04:48.661Z,15.06
2022-10-08T18:07:51.601Z,15.02
2022-10-08T18:10:55.001Z,14.85
2022-10-08T18:13:58.276Z,14.79
2022-10-08T18:17:04.040Z,14.44
2022-10-08T18:20:07.103Z,14.34
2022-10-08T18:23:12.605Z,14.34
2022-10-08T18:26:24.812Z,14.26
2022-10-08T18:29:31.989Z,13.83
2022-10-08T18:32:34.588Z,13.58
2022-10-08T18:35:37.529Z,13.88
2022-10-08T18:38:41.638Z,13.98
2022-10-08T18:41:47.309Z,13.84
2022-10-08T18:44:52.495Z,13.74
2022-10-08T18:47:55.903Z,13.95
2022-10-08T18:51:04.643Z,13.94
2022-10-08T18:54:09.889Z,14.08
2022-10-08T18:57:14.528Z,14.01
2022-10-08T19:00:19.208Z,13.88
2022-10-08T19:03:24.484Z,13.91
2022-10-08T19:06:34.495Z,14.12
2022-10-08T19:09:37.133Z,13.95
2022-10-08T19:12:40.078Z,13.83
2022-10-08T19:15:44.005Z,13.32
2022-10-08T19:19:01.442Z,13.29
2022-10-08T19:22:05.194Z,13.19
2022-10-08T19:25:08.450Z,13.26
2022-10-08T19:28:11.114Z,13.18
2022-10-08T19:31:41.773Z,13.25
2022-10-08T19:34:44.850Z,13.36
2022-10-08T19:37:48.215Z,13.45
2022-10-08T19:40:51.517Z,13.48
2022-10-08T19:43:57.770Z,13.54
2022-10-08T19:47:00.860Z,13.52
2022-10-08T19:50:04.623Z,13.64
2022-10-08T19:53:08.200Z,13.63
2022-10-08T19:56:12.851Z,13.67
2022-10-08T19:59:16.447Z,13.58
2022-10-08T20:02:19.411Z,13.60
2022-10-08T20:05:22.329Z,13.66
2022-10-08T20:08:25.224Z,13.59
2022-10-08T20:11:30.066Z,13.60
2022-10-08T20:14:32.750Z,13.65
2022-10-08T20:17:36.312Z,13.47
2022-10-08T20:20:38.942Z,13.70
2022-10-08T20:23:41.937Z,13.84
2022-10-08T20:26:45.805Z,13.70
2022-10-08T20:29:48.881Z,13.71
2022-10-08T20:32:51.786Z,13.59
2022-10-08T20:35:55.386Z,13.65
2022-10-08T20:38:58.427Z,13.72
2022-10-08T20:42:01.411Z,13.68
2022-10-08T20:45:04.281Z,13.48
2022-10-08T20:48:08.669Z,13.28
2022-10-08T20:51:14.577Z,13.33
2022-10-08T20:54:17.683Z,13.34
2022-10-08T20:57:21.372Z,13.22
2022-10-08T21:00:24.431Z,13.14
2022-10-08T21:03:28.897Z,13.31
2022-10-08T21:06:36.770Z,13.32
2022-10-08T21:09:39.302Z,13.26
2022-10-08T21:12:42.435Z,13.21
2022-10-08T21:15:45.026Z,13.00
2022-10-08T21:18:53.586Z,12.91
2022-10-08T21:21:56.153Z,12.92
2022-10-08T21:24:59.050Z,12.73
2022-10-08T21:28:01.755Z,12.72
2022-10-08T21:31:06.770Z,12.68
2022-10-08T21:34:11.605Z,12.60
2022-10-08T21:37:14.579Z,12.38
2022-10-08T21:40:17.302Z,12.36
2022-10-08T21:43:20.111Z,12.31
2022-10-08T21:46:25.055Z,12.07
2022-10-08T21:49:28.273Z,11.87
2022-10-08T21:52:30.872Z,11.54
2022-10-08T21:55:33.983Z,11.59
2022-10-08T21:58:43.844Z,11.59
2022-10-08T22:01:49.001Z,11.48
2022-10-08T22:04:53.249Z,11.66
2022-10-08T22:07:55.905Z,11.84
2022-10-08T22:10:58.870Z,11.89
2022-10-08T22:14:01.481Z,12.01
2022-10-08T22:17:04.346Z,11.96
2022-10-08T22:20:07.232Z,11.89
2022-10-08T22:23:10.219Z,11.57
2022-10-08T22:26:18.114Z,11.63
2022-10-08T22:29:21.007Z,11.65
2022-10-08T22:32:23.937Z,11.40
2022-10-08T22:35:26.833Z,11.70
2022-10-08T22:38:33.793Z,11.72
2022-10-08T22:41:37.609Z,11.73
2022-10-08T22:44:40.238Z,11.98
2022-10-08T22:47:46.118Z,12.08
2022-10-08T22:50:48.755Z,11.93
2022-10-08T22:53:51.776Z,11.90
2022-10-08T22:56:54.437Z,11.97
2022-10-08T22:59:57.440Z,11.77
2022-10-08T23:03:00.079Z,11.77
2022-10-08T23:06:15.041Z,11.77
2022-10-08T23:09:17.624Z,11.64
2022-10-08T23:12:20.536Z,11.65
2022-10-08T23:15:23.222Z,11.46
2022-10-08T23:18:27.322Z,11.47
2022-10-08T23:21:30.595Z,11.33
2022-10-08T23:24:34.917Z,11.47
2022-10-08T23:27:39.152Z,11.38
2022-10-08T23:30:43.480Z,11.29
2022-10-08T23:33:48.549Z,10.96
2022-10-08T23:36:52.493Z,10.86
2022-10-08T23:39:57.968Z,10.85
2022-10-08T23:43:01.345Z,10.76
2022-10-08T23:46:05.413Z,10.83
2022-10-08T23:49:08.432Z,10.78
2022-10-08T23:52:11.115Z,10.81
2022-10-08T23:55:14.191Z,10.87
2022-10-08T23:58:20.629Z,10.93
